KMSS/MSS METAR and TAF weather

Enter ICAO airport designator
Station Type Date Time Source
KMSS METAR 2019/11/18 13:53 UTC NOAA

KMSS 181353Z AUTO 06006KT 10SM CLR M06/M09 A3003 RMK AO2 SLP175 T10561094


Station Type Date Time Source
KMSS Decoded METAR 2019/11/18 13:53 UTC NOAA

MASSENA INTERNATIONAL -RICHARDS FLD, NY, United States (KMSS) 44-56N 074-51W 66M
Nov 18, 2019 - 08:53 AM EST / 2019.11.18 1353 UTC
Wind: from the ENE (060 degrees) at 7 MPH (6 KT):0
Visibility: 10 mile(s):0
Sky conditions: clear
Temperature: 21.9 F (-5.6 C)
Windchill: 14 F (-10 C):1
Dew Point: 15.1 F (-9.4 C)
Relative Humidity: 74%
Pressure (altimeter): 30.03 in. Hg (1016 hPa)
ob: KMSS 181353Z AUTO 06006KT 10SM CLR M06/M09 A3003 RMK AO2 SLP175 T10561094
cycle: 14

Station Type Date Time Source
KMSS TAF 2019/11/18 12:22 UTC NOAA

TAF KMSS 181120Z 1812/1912 07005KT P6SM BKN035
FM190100 04006KT P6SM VCSH OVC040
FM190300 03005KT P6SM VCSH OVC027

Example: see airport list